sensor_id;sensor_type;location;lat;lon;timestamp;P1;durP1;ratioP1;P2;durP2;ratioP2
63801;SDS011;49949;43.060;25.624;2022-12-18T00:00:44;18.52;;;10.25;;
63801;SDS011;49949;43.060;25.624;2022-12-18T00:03:12;17.65;;;9.23;;
63801;SDS011;49949;43.060;25.624;2022-12-18T00:05:50;17.27;;;9.10;;
63801;SDS011;49949;43.060;25.624;2022-12-18T00:08:17;16.42;;;8.77;;
63801;SDS011;49949;43.060;25.624;2022-12-18T00:10:43;26.48;;;9.88;;
63801;SDS011;49949;43.060;25.624;2022-12-18T00:13:10;16.70;;;9.13;;
63801;SDS011;49949;43.060;25.624;2022-12-18T00:15:37;18.55;;;9.02;;
63801;SDS011;49949;43.060;25.624;2022-12-18T00:18:04;17.55;;;8.55;;
63801;SDS011;49949;43.060;25.624;2022-12-18T00:20:30;15.30;;;9.23;;
63801;SDS011;49949;43.060;25.624;2022-12-18T00:22:56;12.18;;;7.47;;
63801;SDS011;49949;43.060;25.624;2022-12-18T00:25:21;10.48;;;7.28;;
63801;SDS011;49949;43.060;25.624;2022-12-18T00:27:47;12.75;;;8.95;;
63801;SDS011;49949;43.060;25.624;2022-12-18T00:30:13;18.10;;;9.40;;
63801;SDS011;49949;43.060;25.624;2022-12-18T00:32:39;18.77;;;9.20;;
63801;SDS011;49949;43.060;25.624;2022-12-18T00:35:05;14.82;;;7.57;;
63801;SDS011;49949;43.060;25.624;2022-12-18T00:37:33;33.35;;;7.63;;
63801;SDS011;49949;43.060;25.624;2022-12-18T00:39:59;17.60;;;8.95;;
63801;SDS011;49949;43.060;25.624;2022-12-18T00:42:25;15.20;;;9.02;;
63801;SDS011;49949;43.060;25.624;2022-12-18T00:45:09;9.48;;;6.97;;
63801;SDS011;49949;43.060;25.624;2022-12-18T00:47:35;15.80;;;8.20;;
63801;SDS011;49949;43.060;25.624;2022-12-18T00:50:00;14.50;;;8.88;;
63801;SDS011;49949;43.060;25.624;2022-12-18T00:52:26;16.02;;;8.82;;
63801;SDS011;49949;43.060;25.624;2022-12-18T00:54:51;13.75;;;8.80;;
63801;SDS011;49949;43.060;25.624;2022-12-18T00:57:17;12.20;;;7.60;;
63801;SDS011;49949;43.060;25.624;2022-12-18T00:59:43;13.43;;;8.10;;
63801;SDS011;49949;43.060;25.624;2022-12-18T01:02:08;12.00;;;8.90;;
63801;SDS011;49949;43.060;25.624;2022-12-18T01:04:34;14.45;;;8.82;;
63801;SDS011;49949;43.060;25.624;2022-12-18T01:07:00;15.75;;;8.15;;
63801;SDS011;49949;43.060;25.624;2022-12-18T01:09:26;15.93;;;9.68;;
63801;SDS011;49949;43.060;25.624;2022-12-18T01:11:51;12.10;;;8.25;;
63801;SDS011;49949;43.060;25.624;2022-12-18T01:14:17;14.07;;;7.88;;
63801;SDS011;49949;43.060;25.624;2022-12-18T01:16:43;11.20;;;7.80;;
63801;SDS011;49949;43.060;25.624;2022-12-18T01:19:08;20.60;;;7.90;;
63801;SDS011;49949;43.060;25.624;2022-12-18T01:21:35;12.50;;;7.47;;
63801;SDS011;49949;43.060;25.624;2022-12-18T01:24:01;12.00;;;7.03;;
63801;SDS011;49949;43.060;25.624;2022-12-18T01:26:27;16.13;;;6.68;;
63801;SDS011;49949;43.060;25.624;2022-12-18T01:28:57;11.32;;;5.90;;
63801;SDS011;49949;43.060;25.624;2022-12-18T01:31:25;16.45;;;7.43;;
63801;SDS011;49949;43.060;25.624;2022-12-18T01:33:52;13.80;;;7.53;;
63801;SDS011;49949;43.060;25.624;2022-12-18T01:36:20;13.50;;;7.63;;
63801;SDS011;49949;43.060;25.624;2022-12-18T01:38:46;10.45;;;7.50;;
63801;SDS011;49949;43.060;25.624;2022-12-18T01:41:12;13.02;;;7.25;;
63801;SDS011;49949;43.060;25.624;2022-12-18T01:43:46;11.45;;;7.95;;
63801;SDS011;49949;43.060;25.624;2022-12-18T01:46:12;13.82;;;7.60;;
63801;SDS011;49949;43.060;25.624;2022-12-18T01:48:38;10.75;;;7.28;;
63801;SDS011;49949;43.060;25.624;2022-12-18T01:51:06;8.05;;;6.60;;
63801;SDS011;49949;43.060;25.624;2022-12-18T01:53:34;14.30;;;7.13;;
63801;SDS011;49949;43.060;25.624;2022-12-18T01:56:01;14.05;;;6.72;;
63801;SDS011;49949;43.060;25.624;2022-12-18T02:01:26;9.40;;;6.47;;
63801;SDS011;49949;43.060;25.624;2022-12-18T02:03:53;10.38;;;6.35;;
63801;SDS011;49949;43.060;25.624;2022-12-18T02:06:20;10.52;;;7.63;;
63801;SDS011;49949;43.060;25.624;2022-12-18T02:14:20;12.18;;;8.20;;
63801;SDS011;49949;43.060;25.624;2022-12-18T02:27:38;14.90;;;8.95;;
63801;SDS011;49949;43.060;25.624;2022-12-18T02:30:06;12.35;;;8.15;;
63801;SDS011;49949;43.060;25.624;2022-12-18T02:32:40;14.05;;;8.13;;
63801;SDS011;49949;43.060;25.624;2022-12-18T02:35:12;15.32;;;8.68;;
63801;SDS011;49949;43.060;25.624;2022-12-18T02:37:42;16.90;;;7.25;;
63801;SDS011;49949;43.060;25.624;2022-12-18T02:40:09;13.70;;;6.80;;
63801;SDS011;49949;43.060;25.624;2022-12-18T02:42:38;12.93;;;6.97;;
63801;SDS011;49949;43.060;25.624;2022-12-18T02:45:04;11.32;;;6.53;;
63801;SDS011;49949;43.060;25.624;2022-12-18T02:47:34;9.65;;;6.40;;
63801;SDS011;49949;43.060;25.624;2022-12-18T02:52:54;9.32;;;6.50;;
63801;SDS011;49949;43.060;25.624;2022-12-18T03:04:11;10.27;;;7.05;;
63801;SDS011;49949;43.060;25.624;2022-12-18T03:07:04;15.07;;;7.47;;
63801;SDS011;49949;43.060;25.624;2022-12-18T03:15:24;13.23;;;7.32;;
63801;SDS011;49949;43.060;25.624;2022-12-18T03:17:50;11.82;;;7.50;;
63801;SDS011;49949;43.060;25.624;2022-12-18T03:20:21;11.68;;;6.80;;
63801;SDS011;49949;43.060;25.624;2022-12-18T03:22:50;12.55;;;7.65;;
63801;SDS011;49949;43.060;25.624;2022-12-18T03:25:18;9.95;;;6.70;;
63801;SDS011;49949;43.060;25.624;2022-12-18T03:27:49;11.13;;;7.13;;
63801;SDS011;49949;43.060;25.624;2022-12-18T03:30:20;12.88;;;7.53;;
63801;SDS011;49949;43.060;25.624;2022-12-18T03:32:53;12.05;;;7.47;;
63801;SDS011;49949;43.060;25.624;2022-12-18T03:35:32;12.55;;;7.72;;
63801;SDS011;49949;43.060;25.624;2022-12-18T03:38:01;12.45;;;7.68;;
63801;SDS011;49949;43.060;25.624;2022-12-18T03:40:29;12.30;;;7.65;;
63801;SDS011;49949;43.060;25.624;2022-12-18T03:43:08;14.10;;;8.15;;
63801;SDS011;49949;43.060;25.624;2022-12-18T03:45:42;12.80;;;7.72;;
63801;SDS011;49949;43.060;25.624;2022-12-18T03:48:20;15.82;;;8.25;;
63801;SDS011;49949;43.060;25.624;2022-12-18T03:50:57;15.98;;;8.20;;
63801;SDS011;49949;43.060;25.624;2022-12-18T03:56:01;15.90;;;9.13;;
63801;SDS011;49949;43.060;25.624;2022-12-18T03:58:29;15.13;;;8.82;;
63801;SDS011;49949;43.060;25.624;2022-12-18T04:00:58;18.73;;;8.82;;
63801;SDS011;49949;43.060;25.624;2022-12-18T04:03:27;15.55;;;8.98;;
63801;SDS011;49949;43.060;25.624;2022-12-18T04:05:55;16.15;;;8.60;;
63801;SDS011;49949;43.060;25.624;2022-12-18T04:08:24;14.50;;;9.05;;
63801;SDS011;49949;43.060;25.624;2022-12-18T04:10:50;12.68;;;8.25;;
63801;SDS011;49949;43.060;25.624;2022-12-18T04:13:23;17.80;;;11.50;;
63801;SDS011;49949;43.060;25.624;2022-12-18T04:15:52;19.35;;;11.85;;
63801;SDS011;49949;43.060;25.624;2022-12-18T04:18:18;20.70;;;11.82;;
63801;SDS011;49949;43.060;25.624;2022-12-18T04:20:44;23.65;;;12.95;;
63801;SDS011;49949;43.060;25.624;2022-12-18T04:23:09;28.48;;;14.85;;
63801;SDS011;49949;43.060;25.624;2022-12-18T04:25:35;20.17;;;10.00;;
63801;SDS011;49949;43.060;25.624;2022-12-18T04:28:01;40.15;;;12.30;;
63801;SDS011;49949;43.060;25.624;2022-12-18T04:30:26;27.98;;;14.38;;
63801;SDS011;49949;43.060;25.624;2022-12-18T04:32:52;22.90;;;14.07;;
63801;SDS011;49949;43.060;25.624;2022-12-18T04:35:18;23.98;;;14.32;;
63801;SDS011;49949;43.060;25.624;2022-12-18T04:37:43;27.50;;;16.48;;
63801;SDS011;49949;43.060;25.624;2022-12-18T04:40:09;31.77;;;19.15;;
63801;SDS011;49949;43.060;25.624;2022-12-18T04:42:35;27.77;;;15.77;;
63801;SDS011;49949;43.060;25.624;2022-12-18T04:45:01;23.95;;;13.00;;
63801;SDS011;49949;43.060;25.624;2022-12-18T04:47:26;20.67;;;12.45;;
63801;SDS011;49949;43.060;25.624;2022-12-18T04:49:52;21.92;;;12.75;;
63801;SDS011;49949;43.060;25.624;2022-12-18T04:52:18;23.13;;;13.50;;
63801;SDS011;49949;43.060;25.624;2022-12-18T04:54:44;21.02;;;12.68;;
63801;SDS011;49949;43.060;25.624;2022-12-18T04:57:09;23.25;;;12.80;;
63801;SDS011;49949;43.060;25.624;2022-12-18T04:59:35;21.48;;;12.88;;
63801;SDS011;49949;43.060;25.624;2022-12-18T05:02:01;23.25;;;13.07;;
63801;SDS011;49949;43.060;25.624;2022-12-18T05:04:26;18.58;;;11.10;;
63801;SDS011;49949;43.060;25.624;2022-12-18T05:06:52;18.17;;;11.20;;
63801;SDS011;49949;43.060;25.624;2022-12-18T05:09:18;17.80;;;10.93;;
63801;SDS011;49949;43.060;25.624;2022-12-18T05:11:43;19.60;;;11.68;;
63801;SDS011;49949;43.060;25.624;2022-12-18T05:14:09;20.02;;;11.57;;
63801;SDS011;49949;43.060;25.624;2022-12-18T05:16:35;19.83;;;12.63;;
63801;SDS011;49949;43.060;25.624;2022-12-18T05:19:00;21.40;;;12.80;;
63801;SDS011;49949;43.060;25.624;2022-12-18T05:21:26;25.40;;;14.88;;
63801;SDS011;49949;43.060;25.624;2022-12-18T05:23:52;25.63;;;15.30;;
63801;SDS011;49949;43.060;25.624;2022-12-18T05:26:17;25.80;;;15.13;;
63801;SDS011;49949;43.060;25.624;2022-12-18T05:28:43;23.73;;;16.10;;
63801;SDS011;49949;43.060;25.624;2022-12-18T05:31:09;26.23;;;15.73;;
63801;SDS011;49949;43.060;25.624;2022-12-18T05:33:36;27.50;;;16.65;;
63801;SDS011;49949;43.060;25.624;2022-12-18T05:36:02;27.90;;;15.20;;
63801;SDS011;49949;43.060;25.624;2022-12-18T05:38:29;27.05;;;15.50;;
63801;SDS011;49949;43.060;25.624;2022-12-18T05:40:56;24.50;;;14.23;;
63801;SDS011;49949;43.060;25.624;2022-12-18T05:43:22;26.58;;;15.43;;
63801;SDS011;49949;43.060;25.624;2022-12-18T05:45:49;27.50;;;16.65;;
63801;SDS011;49949;43.060;25.624;2022-12-18T05:48:16;31.65;;;17.65;;
63801;SDS011;49949;43.060;25.624;2022-12-18T05:50:43;28.25;;;17.70;;
63801;SDS011;49949;43.060;25.624;2022-12-18T05:53:13;29.35;;;16.58;;
63801;SDS011;49949;43.060;25.624;2022-12-18T05:55:40;27.33;;;17.15;;
63801;SDS011;49949;43.060;25.624;2022-12-18T05:58:08;26.42;;;15.63;;
63801;SDS011;49949;43.060;25.624;2022-12-18T06:00:35;27.73;;;14.98;;
63801;SDS011;49949;43.060;25.624;2022-12-18T06:03:05;24.90;;;13.45;;
63801;SDS011;49949;43.060;25.624;2022-12-18T06:05:38;25.90;;;15.05;;
63801;SDS011;49949;43.060;25.624;2022-12-18T06:08:05;22.77;;;13.55;;
63801;SDS011;49949;43.060;25.624;2022-12-18T06:10:31;28.73;;;15.10;;
63801;SDS011;49949;43.060;25.624;2022-12-18T06:12:57;29.58;;;16.70;;
63801;SDS011;49949;43.060;25.624;2022-12-18T06:15:23;27.58;;;16.75;;
63801;SDS011;49949;43.060;25.624;2022-12-18T06:17:49;31.17;;;17.08;;
63801;SDS011;49949;43.060;25.624;2022-12-18T06:20:15;26.40;;;15.50;;
63801;SDS011;49949;43.060;25.624;2022-12-18T06:22:41;29.95;;;16.20;;
63801;SDS011;49949;43.060;25.624;2022-12-18T06:25:07;17.73;;;9.65;;
63801;SDS011;49949;43.060;25.624;2022-12-18T06:27:33;17.27;;;9.02;;
63801;SDS011;49949;43.060;25.624;2022-12-18T06:29:59;15.43;;;9.85;;
63801;SDS011;49949;43.060;25.624;2022-12-18T06:32:25;16.50;;;8.25;;
63801;SDS011;49949;43.060;25.624;2022-12-18T06:34:51;15.20;;;8.82;;
63801;SDS011;49949;43.060;25.624;2022-12-18T06:37:16;13.55;;;8.10;;
63801;SDS011;49949;43.060;25.624;2022-12-18T06:39:42;14.85;;;9.00;;
63801;SDS011;49949;43.060;25.624;2022-12-18T06:42:08;16.77;;;9.45;;
63801;SDS011;49949;43.060;25.624;2022-12-18T06:44:33;23.42;;;10.32;;
63801;SDS011;49949;43.060;25.624;2022-12-18T06:46:59;18.17;;;10.27;;
63801;SDS011;49949;43.060;25.624;2022-12-18T06:49:25;18.50;;;10.63;;
63801;SDS011;49949;43.060;25.624;2022-12-18T06:51:50;18.67;;;8.82;;
63801;SDS011;49949;43.060;25.624;2022-12-18T06:54:16;17.17;;;9.48;;
63801;SDS011;49949;43.060;25.624;2022-12-18T06:56:44;19.27;;;10.05;;
63801;SDS011;49949;43.060;25.624;2022-12-18T06:59:12;14.98;;;8.73;;
63801;SDS011;49949;43.060;25.624;2022-12-18T07:01:38;15.40;;;9.43;;
63801;SDS011;49949;43.060;25.624;2022-12-18T07:04:04;15.73;;;9.27;;
63801;SDS011;49949;43.060;25.624;2022-12-18T07:06:29;15.80;;;10.05;;
63801;SDS011;49949;43.060;25.624;2022-12-18T07:08:55;16.52;;;9.20;;
63801;SDS011;49949;43.060;25.624;2022-12-18T07:11:21;16.98;;;10.25;;
63801;SDS011;49949;43.060;25.624;2022-12-18T07:13:47;16.73;;;9.48;;
63801;SDS011;49949;43.060;25.624;2022-12-18T07:16:17;20.40;;;10.20;;
63801;SDS011;49949;43.060;25.624;2022-12-18T07:18:44;18.45;;;10.02;;
63801;SDS011;49949;43.060;25.624;2022-12-18T07:21:11;18.70;;;10.23;;
63801;SDS011;49949;43.060;25.624;2022-12-18T07:23:39;15.10;;;9.07;;
63801;SDS011;49949;43.060;25.624;2022-12-18T07:26:06;17.05;;;9.48;;
63801;SDS011;49949;43.060;25.624;2022-12-18T07:28:34;14.45;;;8.73;;
63801;SDS011;49949;43.060;25.624;2022-12-18T07:31:07;18.80;;;9.52;;
63801;SDS011;49949;43.060;25.624;2022-12-18T07:33:37;17.42;;;10.07;;
63801;SDS011;49949;43.060;25.624;2022-12-18T07:36:03;18.83;;;9.45;;
63801;SDS011;49949;43.060;25.624;2022-12-18T07:38:31;16.08;;;9.25;;
63801;SDS011;49949;43.060;25.624;2022-12-18T07:41:02;20.20;;;10.10;;
63801;SDS011;49949;43.060;25.624;2022-12-18T07:43:29;17.08;;;9.88;;
63801;SDS011;49949;43.060;25.624;2022-12-18T07:45:55;26.15;;;10.05;;
63801;SDS011;49949;43.060;25.624;2022-12-18T07:48:21;17.17;;;9.50;;
63801;SDS011;49949;43.060;25.624;2022-12-18T07:50:47;16.88;;;9.38;;
63801;SDS011;49949;43.060;25.624;2022-12-18T07:53:12;17.75;;;9.85;;
63801;SDS011;49949;43.060;25.624;2022-12-18T07:55:39;17.20;;;9.82;;
63801;SDS011;49949;43.060;25.624;2022-12-18T07:58:08;19.23;;;10.15;;
63801;SDS011;49949;43.060;25.624;2022-12-18T08:00:34;18.13;;;10.30;;
63801;SDS011;49949;43.060;25.624;2022-12-18T08:03:00;21.23;;;10.60;;
63801;SDS011;49949;43.060;25.624;2022-12-18T08:05:26;21.25;;;11.15;;
63801;SDS011;49949;43.060;25.624;2022-12-18T08:07:52;23.60;;;10.35;;
63801;SDS011;49949;43.060;25.624;2022-12-18T08:10:18;23.02;;;11.35;;
63801;SDS011;49949;43.060;25.624;2022-12-18T08:12:44;23.42;;;12.45;;
63801;SDS011;49949;43.060;25.624;2022-12-18T08:15:10;17.88;;;9.95;;
63801;SDS011;49949;43.060;25.624;2022-12-18T08:17:36;16.73;;;10.32;;
63801;SDS011;49949;43.060;25.624;2022-12-18T08:20:02;18.58;;;10.13;;
63801;SDS011;49949;43.060;25.624;2022-12-18T08:22:28;16.52;;;9.52;;
63801;SDS011;49949;43.060;25.624;2022-12-18T08:24:54;19.27;;;8.57;;
63801;SDS011;49949;43.060;25.624;2022-12-18T08:27:20;12.95;;;8.27;;
63801;SDS011;49949;43.060;25.624;2022-12-18T08:29:45;24.45;;;9.07;;
63801;SDS011;49949;43.060;25.624;2022-12-18T08:32:11;21.65;;;8.15;;
63801;SDS011;49949;43.060;25.624;2022-12-18T08:34:37;13.95;;;8.00;;
63801;SDS011;49949;43.060;25.624;2022-12-18T08:37:03;13.38;;;7.43;;
63801;SDS011;49949;43.060;25.624;2022-12-18T08:39:28;12.20;;;7.50;;
63801;SDS011;49949;43.060;25.624;2022-12-18T08:41:54;16.10;;;7.30;;
63801;SDS011;49949;43.060;25.624;2022-12-18T08:44:38;11.00;;;6.78;;
63801;SDS011;49949;43.060;25.624;2022-12-18T08:47:07;12.93;;;7.85;;
63801;SDS011;49949;43.060;25.624;2022-12-18T08:49:33;13.57;;;8.13;;
63801;SDS011;49949;43.060;25.624;2022-12-18T08:51:59;19.45;;;9.23;;
63801;SDS011;49949;43.060;25.624;2022-12-18T08:54:26;18.13;;;9.18;;
63801;SDS011;49949;43.060;25.624;2022-12-18T08:56:52;20.65;;;9.30;;
63801;SDS011;49949;43.060;25.624;2022-12-18T08:59:18;17.02;;;9.30;;
63801;SDS011;49949;43.060;25.624;2022-12-18T09:01:44;19.23;;;9.10;;
63801;SDS011;49949;43.060;25.624;2022-12-18T09:04:11;19.27;;;9.00;;
63801;SDS011;49949;43.060;25.624;2022-12-18T09:06:37;29.27;;;9.32;;
63801;SDS011;49949;43.060;25.624;2022-12-18T09:09:03;17.80;;;9.02;;
63801;SDS011;49949;43.060;25.624;2022-12-18T09:11:30;17.63;;;9.45;;
63801;SDS011;49949;43.060;25.624;2022-12-18T09:13:57;17.35;;;9.43;;
63801;SDS011;49949;43.060;25.624;2022-12-18T09:16:25;17.05;;;9.48;;
63801;SDS011;49949;43.060;25.624;2022-12-18T09:18:53;23.17;;;10.55;;
63801;SDS011;49949;43.060;25.624;2022-12-18T09:21:25;19.10;;;9.40;;
63801;SDS011;49949;43.060;25.624;2022-12-18T09:23:52;17.55;;;10.20;;
63801;SDS011;49949;43.060;25.624;2022-12-18T09:26:20;19.92;;;11.65;;
63801;SDS011;49949;43.060;25.624;2022-12-18T09:28:46;20.33;;;12.00;;
63801;SDS011;49949;43.060;25.624;2022-12-18T09:31:12;20.08;;;8.82;;
63801;SDS011;49949;43.060;25.624;2022-12-18T09:33:38;18.20;;;9.70;;
63801;SDS011;49949;43.060;25.624;2022-12-18T09:36:05;19.17;;;8.38;;
63801;SDS011;49949;43.060;25.624;2022-12-18T09:38:32;20.40;;;10.00;;
63801;SDS011;49949;43.060;25.624;2022-12-18T09:49:22;22.00;;;9.05;;
63801;SDS011;49949;43.060;25.624;2022-12-18T09:51:52;20.33;;;10.13;;
63801;SDS011;49949;43.060;25.624;2022-12-18T09:54:38;18.65;;;9.50;;
63801;SDS011;49949;43.060;25.624;2022-12-18T09:57:05;18.48;;;9.07;;
63801;SDS011;49949;43.060;25.624;2022-12-18T09:59:35;17.73;;;9.63;;
63801;SDS011;49949;43.060;25.624;2022-12-18T10:02:14;14.90;;;8.60;;
63801;SDS011;49949;43.060;25.624;2022-12-18T10:04:40;20.08;;;9.93;;
63801;SDS011;49949;43.060;25.624;2022-12-18T10:07:49;17.80;;;10.48;;
63801;SDS011;49949;43.060;25.624;2022-12-18T10:10:11;16.45;;;9.25;;
63801;SDS011;49949;43.060;25.624;2022-12-18T10:12:51;16.45;;;10.02;;
63801;SDS011;49949;43.060;25.624;2022-12-18T10:15:35;19.67;;;11.23;;
63801;SDS011;49949;43.060;25.624;2022-12-18T10:21:12;18.38;;;9.27;;
63801;SDS011;49949;43.060;25.624;2022-12-18T10:23:51;12.98;;;8.27;;
63801;SDS011;49949;43.060;25.624;2022-12-18T10:26:26;13.35;;;7.00;;
63801;SDS011;49949;43.060;25.624;2022-12-18T10:28:52;13.15;;;7.97;;
63801;SDS011;49949;43.060;25.624;2022-12-18T10:31:22;15.90;;;8.00;;
63801;SDS011;49949;43.060;25.624;2022-12-18T10:33:49;16.80;;;7.75;;
63801;SDS011;49949;43.060;25.624;2022-12-18T10:36:15;13.63;;;7.97;;
63801;SDS011;49949;43.060;25.624;2022-12-18T10:38:41;19.20;;;9.45;;
63801;SDS011;49949;43.060;25.624;2022-12-18T10:44:14;15.68;;;8.73;;
63801;SDS011;49949;43.060;25.624;2022-12-18T10:46:37;19.17;;;8.75;;
63801;SDS011;49949;43.060;25.624;2022-12-18T10:49:04;18.20;;;8.77;;
63801;SDS011;49949;43.060;25.624;2022-12-18T10:51:33;17.23;;;9.55;;
63801;SDS011;49949;43.060;25.624;2022-12-18T10:54:04;13.32;;;5.03;;
63801;SDS011;49949;43.060;25.624;2022-12-18T10:56:37;15.70;;;7.50;;
63801;SDS011;49949;43.060;25.624;2022-12-18T10:59:04;22.88;;;9.27;;
63801;SDS011;49949;43.060;25.624;2022-12-18T11:01:51;3.25;;;2.03;;
63801;SDS011;49949;43.060;25.624;2022-12-18T11:04:22;19.02;;;9.20;;
63801;SDS011;49949;43.060;25.624;2022-12-18T11:07:04;14.57;;;7.28;;
63801;SDS011;49949;43.060;25.624;2022-12-18T11:09:35;11.98;;;7.68;;
63801;SDS011;49949;43.060;25.624;2022-12-18T11:12:18;14.88;;;8.18;;
63801;SDS011;49949;43.060;25.624;2022-12-18T11:14:48;14.70;;;8.25;;
63801;SDS011;49949;43.060;25.624;2022-12-18T11:19:55;16.85;;;7.72;;
63801;SDS011;49949;43.060;25.624;2022-12-18T11:22:32;12.35;;;7.97;;
63801;SDS011;49949;43.060;25.624;2022-12-18T11:27:40;14.95;;;6.53;;
63801;SDS011;49949;43.060;25.624;2022-12-18T11:30:23;8.00;;;4.43;;
63801;SDS011;49949;43.060;25.624;2022-12-18T11:32:55;14.10;;;6.68;;
63801;SDS011;49949;43.060;25.624;2022-12-18T11:35:50;11.95;;;6.68;;
63801;SDS011;49949;43.060;25.624;2022-12-18T11:49:59;14.27;;;7.32;;
63801;SDS011;49949;43.060;25.624;2022-12-18T11:54:58;14.85;;;7.43;;
63801;SDS011;49949;43.060;25.624;2022-12-18T12:00:22;12.95;;;7.22;;
63801;SDS011;49949;43.060;25.624;2022-12-18T12:18:29;25.80;;;11.10;;
63801;SDS011;49949;43.060;25.624;2022-12-18T12:21:15;20.27;;;11.05;;
63801;SDS011;49949;43.060;25.624;2022-12-18T12:23:53;20.15;;;10.75;;
63801;SDS011;49949;43.060;25.624;2022-12-18T12:35:28;20.42;;;11.93;;
63801;SDS011;49949;43.060;25.624;2022-12-18T12:40:37;15.45;;;5.93;;
63801;SDS011;49949;43.060;25.624;2022-12-18T12:51:37;14.00;;;7.72;;
63801;SDS011;49949;43.060;25.624;2022-12-18T12:54:11;29.90;;;12.68;;
63801;SDS011;49949;43.060;25.624;2022-12-18T12:56:54;18.25;;;8.48;;
63801;SDS011;49949;43.060;25.624;2022-12-18T13:07:47;21.15;;;11.18;;
63801;SDS011;49949;43.060;25.624;2022-12-18T13:26:00;22.17;;;12.27;;
63801;SDS011;49949;43.060;25.624;2022-12-18T13:31:11;23.17;;;12.00;;
63801;SDS011;49949;43.060;25.624;2022-12-18T13:34:30;25.65;;;11.63;;
63801;SDS011;49949;43.060;25.624;2022-12-18T13:36:49;22.98;;;12.40;;
63801;SDS011;49949;43.060;25.624;2022-12-18T13:41:48;22.20;;;12.13;;
63801;SDS011;49949;43.060;25.624;2022-12-18T13:47:05;22.67;;;12.50;;
63801;SDS011;49949;43.060;25.624;2022-12-18T13:49:56;22.87;;;12.63;;
63801;SDS011;49949;43.060;25.624;2022-12-18T13:52:26;27.38;;;13.80;;
63801;SDS011;49949;43.060;25.624;2022-12-18T13:54:55;27.63;;;13.40;;
63801;SDS011;49949;43.060;25.624;2022-12-18T14:02:46;26.77;;;13.18;;
63801;SDS011;49949;43.060;25.624;2022-12-18T14:05:21;27.50;;;12.32;;
63801;SDS011;49949;43.060;25.624;2022-12-18T14:07:48;25.75;;;12.32;;
63801;SDS011;49949;43.060;25.624;2022-12-18T14:10:15;25.90;;;13.32;;
63801;SDS011;49949;43.060;25.624;2022-12-18T14:12:44;25.05;;;12.45;;
63801;SDS011;49949;43.060;25.624;2022-12-18T14:20:26;126.40;;;18.88;;
63801;SDS011;49949;43.060;25.624;2022-12-18T14:22:53;44.90;;;14.35;;
63801;SDS011;49949;43.060;25.624;2022-12-18T14:25:22;26.48;;;13.32;;
63801;SDS011;49949;43.060;25.624;2022-12-18T14:28:31;28.77;;;13.20;;
63801;SDS011;49949;43.060;25.624;2022-12-18T14:30:40;25.10;;;13.02;;
63801;SDS011;49949;43.060;25.624;2022-12-18T14:33:12;33.53;;;13.80;;
63801;SDS011;49949;43.060;25.624;2022-12-18T14:40:58;28.67;;;13.00;;
63801;SDS011;49949;43.060;25.624;2022-12-18T14:43:27;30.05;;;14.10;;
63801;SDS011;49949;43.060;25.624;2022-12-18T14:45:55;28.17;;;14.48;;
63801;SDS011;49949;43.060;25.624;2022-12-18T14:48:33;27.08;;;13.18;;
63801;SDS011;49949;43.060;25.624;2022-12-18T14:51:03;24.27;;;12.82;;
63801;SDS011;49949;43.060;25.624;2022-12-18T14:53:45;34.70;;;14.32;;
63801;SDS011;49949;43.060;25.624;2022-12-18T15:01:45;28.33;;;13.27;;
63801;SDS011;49949;43.060;25.624;2022-12-18T15:04:29;25.92;;;13.60;;
63801;SDS011;49949;43.060;25.624;2022-12-18T15:12:36;42.65;;;15.38;;
63801;SDS011;49949;43.060;25.624;2022-12-18T15:20:47;30.83;;;15.40;;
63801;SDS011;49949;43.060;25.624;2022-12-18T15:25:43;30.60;;;14.18;;
63801;SDS011;49949;43.060;25.624;2022-12-18T15:28:17;20.58;;;9.50;;
63801;SDS011;49949;43.060;25.624;2022-12-18T15:31:06;34.10;;;14.90;;
63801;SDS011;49949;43.060;25.624;2022-12-18T15:33:43;26.25;;;12.02;;
63801;SDS011;49949;43.060;25.624;2022-12-18T15:36:29;23.42;;;12.07;;
63801;SDS011;49949;43.060;25.624;2022-12-18T15:38:55;29.83;;;14.75;;
63801;SDS011;49949;43.060;25.624;2022-12-18T15:41:24;27.95;;;15.18;;
63801;SDS011;49949;43.060;25.624;2022-12-18T15:43:51;27.90;;;14.27;;
63801;SDS011;49949;43.060;25.624;2022-12-18T15:46:18;32.03;;;14.93;;
63801;SDS011;49949;43.060;25.624;2022-12-18T15:48:46;28.50;;;14.55;;
63801;SDS011;49949;43.060;25.624;2022-12-18T15:53:58;27.10;;;13.13;;
63801;SDS011;49949;43.060;25.624;2022-12-18T15:56:28;24.00;;;12.05;;
63801;SDS011;49949;43.060;25.624;2022-12-18T15:59:32;30.52;;;15.55;;
63801;SDS011;49949;43.060;25.624;2022-12-18T16:01:58;29.35;;;12.93;;
63801;SDS011;49949;43.060;25.624;2022-12-18T16:04:24;30.98;;;14.30;;
63801;SDS011;49949;43.060;25.624;2022-12-18T16:06:50;32.47;;;16.50;;
63801;SDS011;49949;43.060;25.624;2022-12-18T16:09:16;30.70;;;15.95;;
63801;SDS011;49949;43.060;25.624;2022-12-18T16:11:42;28.73;;;15.80;;
63801;SDS011;49949;43.060;25.624;2022-12-18T16:14:18;28.58;;;15.13;;
63801;SDS011;49949;43.060;25.624;2022-12-18T16:16:51;26.95;;;13.60;;
63801;SDS011;49949;43.060;25.624;2022-12-18T16:19:19;31.35;;;15.32;;
63801;SDS011;49949;43.060;25.624;2022-12-18T16:21:46;28.10;;;11.82;;
63801;SDS011;49949;43.060;25.624;2022-12-18T16:24:15;31.13;;;14.52;;
63801;SDS011;49949;43.060;25.624;2022-12-18T16:26:41;30.98;;;16.33;;
63801;SDS011;49949;43.060;25.624;2022-12-18T16:29:08;28.50;;;14.20;;
63801;SDS011;49949;43.060;25.624;2022-12-18T16:31:34;32.25;;;15.70;;
63801;SDS011;49949;43.060;25.624;2022-12-18T16:37:05;34.28;;;16.58;;
63801;SDS011;49949;43.060;25.624;2022-12-18T16:39:34;35.90;;;16.17;;
63801;SDS011;49949;43.060;25.624;2022-12-18T16:42:06;33.60;;;14.98;;
63801;SDS011;49949;43.060;25.624;2022-12-18T16:44:43;33.75;;;14.52;;
63801;SDS011;49949;43.060;25.624;2022-12-18T16:47:10;35.33;;;17.25;;
63801;SDS011;49949;43.060;25.624;2022-12-18T16:49:36;30.95;;;14.82;;
63801;SDS011;49949;43.060;25.624;2022-12-18T16:52:03;33.97;;;17.20;;
63801;SDS011;49949;43.060;25.624;2022-12-18T16:54:29;38.50;;;17.98;;
63801;SDS011;49949;43.060;25.624;2022-12-18T16:56:56;37.83;;;17.67;;
63801;SDS011;49949;43.060;25.624;2022-12-18T16:59:22;38.28;;;17.20;;
63801;SDS011;49949;43.060;25.624;2022-12-18T17:01:47;35.65;;;16.35;;
63801;SDS011;49949;43.060;25.624;2022-12-18T17:04:13;36.33;;;16.13;;
63801;SDS011;49949;43.060;25.624;2022-12-18T17:06:41;32.55;;;15.30;;
63801;SDS011;49949;43.060;25.624;2022-12-18T17:09:10;35.22;;;16.15;;
63801;SDS011;49949;43.060;25.624;2022-12-18T17:11:38;30.75;;;15.98;;
63801;SDS011;49949;43.060;25.624;2022-12-18T17:14:05;31.95;;;16.77;;
63801;SDS011;49949;43.060;25.624;2022-12-18T17:16:32;34.80;;;15.93;;
63801;SDS011;49949;43.060;25.624;2022-12-18T17:18:58;30.77;;;15.32;;
63801;SDS011;49949;43.060;25.624;2022-12-18T17:21:23;33.38;;;15.32;;
63801;SDS011;49949;43.060;25.624;2022-12-18T17:23:49;28.38;;;15.13;;
63801;SDS011;49949;43.060;25.624;2022-12-18T17:26:15;31.20;;;16.15;;
63801;SDS011;49949;43.060;25.624;2022-12-18T17:28:41;34.00;;;16.02;;
63801;SDS011;49949;43.060;25.624;2022-12-18T17:31:25;31.60;;;15.65;;